createdAt,value
2023-02-01T00:00:52.852Z,4.17
2023-02-01T00:03:20.656Z,3.96
2023-02-01T00:05:57.033Z,4.17
2023-02-01T00:08:23.871Z,4.14
2023-02-01T00:11:06.790Z,3.79
2023-02-01T00:13:36.286Z,3.79
2023-02-01T00:16:07.984Z,4.10
2023-02-01T00:18:36.093Z,4.01
2023-02-01T00:21:03.006Z,3.62
2023-02-01T00:23:32.610Z,3.73
2023-02-01T00:26:05.252Z,4.05
2023-02-01T00:28:32.510Z,4.14
2023-02-01T00:31:04.096Z,3.81
2023-02-01T00:33:32.188Z,3.92
2023-02-01T00:36:00.556Z,4.13
2023-02-01T00:38:28.147Z,3.88
2023-02-01T00:40:55.492Z,3.99
2023-02-01T00:43:22.193Z,3.88
2023-02-01T00:45:49.047Z,3.64
2023-02-01T00:48:15.775Z,3.97
2023-02-01T00:50:43.909Z,3.49
2023-02-01T00:53:11.418Z,3.48
2023-02-01T00:55:38.472Z,2.61
2023-02-01T00:58:05.200Z,2.83
2023-02-01T01:00:31.927Z,2.96
2023-02-01T01:02:58.657Z,3.19
2023-02-01T01:05:25.413Z,3.22
2023-02-01T01:07:52.794Z,3.15
2023-02-01T01:10:22.227Z,2.69
2023-02-01T01:12:49.267Z,3.14
2023-02-01T01:15:15.958Z,2.77
2023-02-01T01:17:42.589Z,2.72
2023-02-01T01:20:10.098Z,3.15
2023-02-01T01:22:36.709Z,3.22
2023-02-01T01:25:03.480Z,3.05
2023-02-01T01:27:30.159Z,3.36
2023-02-01T01:29:56.786Z,3.37
2023-02-01T01:32:23.461Z,3.28
2023-02-01T01:34:50.216Z,3.02
2023-02-01T01:37:16.824Z,3.22
2023-02-01T01:39:43.426Z,3.11
2023-02-01T01:42:12.653Z,3.09
2023-02-01T01:45:02.360Z,3.07
2023-02-01T01:47:40.507Z,3.51
2023-02-01T01:50:11.439Z,3.45
2023-02-01T01:52:42.278Z,3.33
2023-02-01T01:55:09.304Z,3.48
2023-02-01T01:57:42.803Z,3.27
2023-02-01T02:00:13.543Z,3.27
2023-02-01T02:02:43.948Z,3.55
2023-02-01T02:05:13.616Z,3.43
2023-02-01T02:07:46.443Z,3.61
2023-02-01T02:10:16.818Z,3.85
2023-02-01T02:12:48.564Z,3.36
2023-02-01T02:15:17.994Z,3.47
2023-02-01T02:18:16.559Z,3.44
2023-02-01T02:20:49.040Z,3.63
2023-02-01T02:23:46.401Z,3.62
2023-02-01T02:26:31.929Z,3.73
2023-02-01T02:29:34.968Z,3.67
2023-02-01T02:32:41.288Z,3.88
2023-02-01T02:35:26.179Z,3.61
2023-02-01T02:38:02.113Z,3.97
2023-02-01T02:40:37.902Z,4.18
2023-02-01T02:43:17.388Z,3.73
2023-02-01T02:46:04.937Z,3.70
2023-02-01T02:48:45.578Z,3.68
2023-02-01T02:51:33.308Z,3.48
2023-02-01T02:54:16.736Z,3.41
2023-02-01T02:56:43.488Z,3.21
2023-02-01T02:59:15.487Z,2.76
2023-02-01T03:01:44.104Z,2.86
2023-02-01T03:04:11.673Z,2.80
2023-02-01T03:06:38.992Z,2.03
2023-02-01T03:09:13.641Z,1.81
2023-02-01T03:11:46.770Z,2.17
2023-02-01T03:14:17.801Z,2.53
2023-02-01T03:16:55.073Z,2.45
2023-02-01T03:19:34.032Z,2.45
2023-02-01T03:22:12.167Z,2.19
2023-02-01T03:24:45.421Z,2.24
2023-02-01T03:27:34.896Z,2.34
2023-02-01T03:30:14.064Z,2.60
2023-02-01T03:32:44.296Z,2.83
2023-02-01T03:35:10.956Z,3.07
2023-02-01T03:37:38.051Z,2.88
2023-02-01T03:40:12.321Z,2.98
2023-02-01T03:42:50.444Z,2.65
2023-02-01T03:45:28.777Z,2.82
2023-02-01T03:48:01.071Z,3.19
2023-02-01T03:50:31.655Z,3.10
2023-02-01T03:53:06.481Z,3.34
2023-02-01T03:55:34.019Z,3.20
2023-02-01T03:58:24.264Z,3.51
2023-02-01T04:00:59.313Z,2.88
2023-02-01T04:03:28.182Z,3.31
2023-02-01T04:05:55.631Z,3.04
2023-02-01T04:08:23.356Z,3.13
2023-02-01T04:10:50.137Z,3.21
2023-02-01T04:13:31.879Z,3.17
2023-02-01T04:15:58.551Z,3.20
2023-02-01T04:18:25.178Z,2.98
2023-02-01T04:20:51.775Z,3.11
2023-02-01T04:23:18.417Z,2.46
2023-02-01T04:25:45.224Z,2.72
2023-02-01T04:28:11.829Z,3.10
2023-02-01T04:30:38.575Z,2.67
2023-02-01T04:33:05.456Z,3.05
2023-02-01T04:35:32.205Z,2.65
2023-02-01T04:37:58.839Z,2.30
2023-02-01T04:40:25.705Z,3.01
2023-02-01T04:42:52.465Z,2.94
2023-02-01T04:45:19.059Z,2.90
2023-02-01T04:47:45.665Z,3.05
2023-02-01T04:50:12.385Z,3.03
2023-02-01T04:52:38.988Z,2.64
2023-02-01T04:55:05.998Z,1.80
2023-02-01T04:57:32.901Z,2.50
2023-02-01T04:59:59.590Z,2.50
2023-02-01T05:02:26.246Z,2.64
2023-02-01T05:04:52.888Z,2.47
2023-02-01T05:07:19.504Z,2.78
2023-02-01T05:09:46.105Z,2.88
2023-02-01T05:12:12.996Z,2.96
2023-02-01T05:14:39.634Z,2.72
2023-02-01T05:17:06.265Z,3.10
2023-02-01T05:19:32.940Z,3.13
2023-02-01T05:21:59.593Z,2.83
2023-02-01T05:24:26.193Z,2.96
2023-02-01T05:26:52.870Z,3.00
2023-02-01T05:29:19.563Z,3.43
2023-02-01T05:31:47.271Z,3.28
2023-02-01T05:34:15.069Z,3.44
2023-02-01T05:36:42.039Z,3.39
2023-02-01T05:39:08.682Z,3.37
2023-02-01T05:41:35.334Z,3.29
2023-02-01T05:44:05.366Z,3.27
2023-02-01T05:46:32.531Z,2.66
2023-02-01T05:48:59.158Z,3.35
2023-02-01T05:51:25.805Z,3.35
2023-02-01T05:53:52.390Z,3.46
2023-02-01T05:56:19.023Z,3.60
2023-02-01T05:58:45.672Z,3.33
2023-02-01T06:01:12.445Z,3.24
2023-02-01T06:03:39.216Z,3.38
2023-02-01T06:06:06.043Z,3.52
2023-02-01T06:08:33.018Z,3.53
2023-02-01T06:11:01.916Z,3.24
2023-02-01T06:13:28.613Z,3.27
2023-02-01T06:15:55.331Z,3.20
2023-02-01T06:18:22.067Z,3.43
2023-02-01T06:21:00.063Z,3.88
2023-02-01T06:23:26.771Z,3.45
2023-02-01T06:26:05.184Z,3.50
2023-02-01T06:28:33.633Z,3.52
2023-02-01T06:31:07.783Z,3.83
2023-02-01T06:33:35.616Z,3.83
2023-02-01T06:36:05.417Z,4.11
2023-02-01T06:38:32.280Z,4.08
2023-02-01T06:40:59.262Z,4.06
2023-02-01T06:43:28.138Z,3.68
2023-02-01T06:46:00.077Z,4.04
2023-02-01T06:48:26.808Z,3.88
2023-02-01T06:50:53.485Z,3.88
2023-02-01T06:53:20.237Z,2.70
2023-02-01T06:56:13.245Z,3.79
2023-02-01T06:58:39.937Z,3.73
2023-02-01T07:01:09.190Z,3.41
2023-02-01T07:03:36.003Z,3.88
2023-02-01T07:06:02.884Z,3.87
2023-02-01T07:08:31.178Z,3.86
2023-02-01T07:11:02.496Z,4.19
2023-02-01T07:13:29.139Z,4.18
2023-02-01T07:15:59.288Z,4.33
2023-02-01T07:18:26.442Z,3.97
2023-02-01T07:20:53.114Z,3.59
2023-02-01T07:23:19.861Z,3.65
2023-02-01T07:25:48.203Z,3.76
2023-02-01T07:28:15.189Z,4.26
2023-02-01T07:30:41.922Z,4.00
2023-02-01T07:33:08.736Z,4.13
2023-02-01T07:35:35.623Z,4.27
2023-02-01T07:38:02.403Z,4.30
2023-02-01T07:40:29.044Z,4.42
2023-02-01T07:42:56.293Z,4.52
2023-02-01T07:45:24.022Z,4.50
2023-02-01T07:47:53.292Z,4.17
2023-02-01T07:50:20.213Z,4.58
2023-02-01T07:52:46.806Z,4.63
2023-02-01T07:55:13.467Z,4.91
2023-02-01T07:57:40.062Z,4.83
2023-02-01T08:00:07.249Z,4.11
2023-02-01T08:02:33.915Z,3.55
2023-02-01T08:05:00.574Z,3.64
2023-02-01T08:07:27.191Z,3.73
2023-02-01T08:09:53.806Z,4.17
2023-02-01T08:12:20.409Z,4.55
2023-02-01T08:14:47.025Z,4.65
2023-02-01T08:17:13.672Z,4.84
2023-02-01T08:19:40.265Z,4.59
2023-02-01T08:22:06.941Z,4.69
2023-02-01T08:24:34.877Z,5.04
2023-02-01T08:27:02.976Z,4.75
2023-02-01T08:29:29.696Z,4.67
2023-02-01T08:31:56.385Z,4.42
2023-02-01T08:34:23.356Z,4.95
2023-02-01T08:36:49.961Z,4.93
2023-02-01T08:39:23.175Z,4.64
2023-02-01T08:41:49.838Z,4.99
2023-02-01T08:44:16.501Z,5.01
2023-02-01T08:46:43.116Z,4.42
2023-02-01T08:49:09.867Z,4.46
2023-02-01T08:51:36.468Z,4.78
2023-02-01T08:54:03.135Z,4.85
2023-02-01T08:56:29.772Z,4.93
2023-02-01T08:58:56.439Z,5.12
2023-02-01T09:01:23.086Z,4.87
2023-02-01T09:03:49.795Z,4.64
2023-02-01T09:06:16.660Z,5.07
2023-02-01T09:08:44.012Z,5.18
2023-02-01T09:11:17.832Z,5.20
2023-02-01T09:13:44.880Z,4.85
2023-02-01T09:16:12.114Z,5.03
2023-02-01T09:18:46.111Z,5.17
2023-02-01T09:21:23.159Z,5.54
2023-02-01T09:23:52.323Z,5.85
2023-02-01T09:26:19.796Z,5.60
2023-02-01T09:28:49.535Z,4.97
2023-02-01T09:31:16.202Z,4.69
2023-02-01T09:33:42.924Z,5.01
2023-02-01T09:36:09.639Z,5.24
2023-02-01T09:38:38.827Z,6.02
2023-02-01T09:41:32.098Z,5.92
2023-02-01T09:44:43.813Z,5.86
2023-02-01T09:47:26.130Z,6.21
2023-02-01T09:50:01.876Z,6.26
2023-02-01T09:52:39.013Z,7.08
2023-02-01T09:55:19.565Z,7.12
2023-02-01T09:57:54.533Z,7.04
2023-02-01T10:00:30.270Z,7.04
2023-02-01T10:02:59.054Z,7.38
2023-02-01T10:05:52.943Z,6.96
2023-02-01T10:08:25.262Z,6.85
2023-02-01T10:10:52.236Z,6.86
2023-02-01T10:13:55.180Z,6.86
2023-02-01T10:16:51.696Z,6.69
2023-02-01T10:19:30.400Z,7.41
2023-02-01T10:22:07.557Z,7.07
2023-02-01T10:24:41.262Z,6.93
2023-02-01T10:27:18.967Z,7.17
2023-02-01T10:29:55.675Z,7.41
2023-02-01T10:32:30.112Z,7.81
2023-02-01T10:35:00.350Z,7.41
2023-02-01T10:37:33.622Z,7.40
2023-02-01T10:40:24.876Z,7.30
2023-02-01T10:42:59.916Z,7.09
2023-02-01T10:45:33.274Z,6.87
2023-02-01T10:48:03.330Z,6.87
2023-02-01T10:50:47.288Z,7.22
2023-02-01T10:53:29.601Z,6.94
2023-02-01T10:55:57.389Z,7.31
2023-02-01T10:58:32.940Z,7.02
2023-02-01T11:01:01.348Z,6.34
2023-02-01T11:03:33.421Z,6.02
2023-02-01T11:06:01.710Z,6.25
2023-02-01T11:08:28.705Z,6.42
2023-02-01T11:11:01.423Z,6.43
2023-02-01T11:13:37.652Z,6.04
2023-02-01T11:16:06.502Z,5.61
2023-02-01T11:18:40.085Z,5.63
2023-02-01T11:21:09.750Z,5.92
2023-02-01T11:23:46.299Z,6.00
2023-02-01T11:26:26.624Z,6.31
2023-02-01T11:29:07.438Z,6.24
2023-02-01T11:31:36.261Z,6.48
2023-02-01T11:34:16.364Z,6.46
2023-02-01T11:36:46.937Z,6.32
2023-02-01T11:39:13.495Z,6.20
2023-02-01T11:41:56.997Z,6.42
2023-02-01T11:44:31.937Z,6.70
2023-02-01T11:47:26.077Z,7.28
2023-02-01T11:49:56.010Z,7.20
2023-02-01T11:52:40.728Z,6.80
2023-02-01T11:55:25.909Z,7.29
2023-02-01T11:58:01.257Z,7.25
2023-02-01T12:00:44.694Z,6.94
2023-02-01T12:03:55.643Z,7.23
2023-02-01T12:06:35.783Z,7.22
2023-02-01T12:09:30.111Z,7.39
2023-02-01T12:12:24.902Z,7.13
2023-02-01T12:15:39.939Z,6.37
2023-02-01T12:18:11.158Z,6.57
2023-02-01T12:21:03.931Z,7.02
2023-02-01T12:23:50.972Z,6.68
2023-02-01T12:26:39.159Z,6.56
2023-02-01T12:29:18.308Z,7.05
2023-02-01T12:32:06.263Z,6.95
2023-02-01T12:34:54.635Z,6.87
2023-02-01T12:37:38.359Z,7.22
2023-02-01T12:40:48.654Z,7.34
2023-02-01T12:43:23.684Z,7.18
2023-02-01T12:46:02.263Z,7.07
2023-02-01T12:48:41.678Z,7.11
2023-02-01T12:51:16.552Z,7.37
2023-02-01T12:53:59.998Z,7.11
2023-02-01T12:56:29.963Z,7.17
2023-02-01T12:59:02.646Z,7.05
2023-02-01T13:01:48.388Z,7.14
2023-02-01T13:04:30.884Z,6.66
2023-02-01T13:07:17.965Z,6.80
2023-02-01T13:09:50.523Z,7.12
2023-02-01T13:12:26.919Z,7.43
2023-02-01T13:14:58.608Z,7.13
2023-02-01T13:17:30.689Z,7.34
2023-02-01T13:20:19.983Z,7.15
2023-02-01T13:22:55.403Z,7.57
2023-02-01T13:25:34.964Z,8.05
2023-02-01T13:28:12.705Z,8.01
2023-02-01T13:30:51.157Z,8.06
2023-02-01T13:33:56.232Z,7.57
2023-02-01T13:36:29.259Z,7.32
2023-02-01T13:39:14.415Z,7.37
2023-02-01T13:41:52.162Z,7.11
2023-02-01T13:44:38.914Z,7.45
2023-02-01T13:47:24.810Z,7.90
2023-02-01T13:49:55.513Z,7.77
2023-02-01T13:52:27.919Z,7.73
2023-02-01T13:55:22.867Z,7.02
2023-02-01T13:57:59.533Z,7.28
2023-02-01T14:00:37.237Z,7.88
2023-02-01T14:03:07.086Z,8.03
2023-02-01T14:05:33.687Z,7.56
2023-02-01T14:08:12.645Z,7.20
2023-02-01T14:10:45.423Z,7.37
2023-02-01T14:13:34.364Z,7.61
2023-02-01T14:16:03.937Z,6.87
2023-02-01T14:18:36.731Z,6.61
2023-02-01T14:21:35.036Z,7.35
2023-02-01T14:24:04.355Z,7.57
2023-02-01T14:26:50.860Z,7.80
2023-02-01T14:29:21.449Z,7.66
2023-02-01T14:32:28.998Z,7.72
2023-02-01T14:35:00.410Z,7.91
2023-02-01T14:37:34.804Z,7.83
2023-02-01T14:40:13.725Z,7.72
2023-02-01T14:42:49.868Z,8.05
2023-02-01T14:45:19.524Z,8.09
2023-02-01T14:47:46.876Z,7.91
2023-02-01T14:50:30.436Z,8.11
2023-02-01T14:53:04.748Z,8.01
2023-02-01T14:55:34.333Z,8.45
2023-02-01T14:58:06.013Z,8.19
2023-02-01T15:00:33.684Z,7.72
2023-02-01T15:03:51.633Z,7.29
2023-02-01T15:06:38.418Z,7.34
2023-02-01T15:09:22.296Z,7.29
2023-02-01T15:12:00.378Z,7.30
2023-02-01T15:14:29.634Z,7.92
2023-02-01T15:16:56.436Z,8.11
2023-02-01T15:19:25.526Z,8.18
2023-02-01T15:21:54.988Z,7.79
2023-02-01T15:24:27.206Z,7.82
2023-02-01T15:26:56.893Z,7.66
2023-02-01T15:29:25.374Z,7.52
2023-02-01T15:31:54.175Z,7.92
2023-02-01T15:34:22.310Z,8.24
2023-02-01T15:37:02.141Z,8.54
2023-02-01T15:39:30.467Z,8.71
2023-02-01T15:42:00.847Z,8.62
2023-02-01T15:44:44.023Z,9.06
2023-02-01T15:47:17.983Z,9.00
2023-02-01T15:49:51.505Z,9.01
2023-02-01T15:52:31.715Z,9.07
2023-02-01T15:55:03.094Z,9.22
2023-02-01T15:57:39.411Z,9.06
2023-02-01T16:00:23.495Z,9.48
2023-02-01T16:03:04.464Z,9.69
2023-02-01T16:05:41.780Z,9.43
2023-02-01T16:08:13.688Z,8.84
2023-02-01T16:10:44.611Z,8.96
2023-02-01T16:13:11.406Z,9.04
2023-02-01T16:15:38.056Z,9.40
2023-02-01T16:18:05.733Z,9.29
2023-02-01T16:20:32.413Z,9.17
2023-02-01T16:22:59.126Z,9.49
2023-02-01T16:25:26.272Z,9.72
2023-02-01T16:27:53.149Z,8.97
2023-02-01T16:30:20.042Z,8.74
2023-02-01T16:32:46.756Z,7.74
2023-02-01T16:35:25.808Z,7.75
2023-02-01T16:37:53.432Z,7.02
2023-02-01T16:40:21.723Z,7.17
2023-02-01T16:42:52.382Z,7.59
2023-02-01T16:45:20.070Z,8.11
2023-02-01T16:47:52.495Z,7.68
2023-02-01T16:50:24.329Z,7.49
2023-02-01T16:52:52.114Z,7.56
2023-02-01T16:55:21.519Z,7.43
2023-02-01T16:57:49.128Z,7.78
2023-02-01T17:00:24.479Z,8.17
2023-02-01T17:02:52.500Z,8.50
2023-02-01T17:05:19.263Z,8.68
2023-02-01T17:07:46.544Z,7.93
2023-02-01T17:10:39.657Z,7.33
2023-02-01T17:13:09.351Z,7.92
2023-02-01T17:15:36.224Z,8.36
2023-02-01T17:18:03.606Z,8.30
2023-02-01T17:20:31.879Z,7.74
2023-02-01T17:22:59.275Z,6.87
2023-02-01T17:25:28.704Z,6.91
2023-02-01T17:27:55.496Z,7.55
2023-02-01T17:30:22.503Z,7.56
2023-02-01T17:32:49.452Z,7.56
2023-02-01T17:35:25.793Z,7.97
2023-02-01T17:37:53.919Z,7.14
2023-02-01T17:40:20.668Z,7.47
2023-02-01T17:42:47.832Z,7.92
2023-02-01T17:45:38.386Z,7.90
2023-02-01T17:48:06.473Z,7.19
2023-02-01T17:50:36.781Z,7.07
2023-02-01T17:53:04.528Z,6.78
2023-02-01T17:55:35.466Z,6.95
2023-02-01T17:58:02.325Z,7.04
2023-02-01T18:00:29.500Z,7.06
2023-02-01T18:02:56.208Z,7.38
2023-02-01T18:05:29.559Z,7.72
2023-02-01T18:07:56.501Z,7.67
2023-02-01T18:10:23.187Z,7.92
2023-02-01T18:12:50.057Z,8.24
2023-02-01T18:15:23.522Z,8.45
2023-02-01T18:17:50.394Z,8.66
2023-02-01T18:20:23.021Z,8.59
2023-02-01T18:22:50.421Z,8.46
2023-02-01T18:25:25.159Z,8.40
2023-02-01T18:27:54.848Z,8.37
2023-02-01T18:30:24.340Z,8.57
2023-02-01T18:32:51.520Z,8.46
2023-02-01T18:35:23.176Z,8.14
2023-02-01T18:37:51.725Z,8.33
2023-02-01T18:40:21.779Z,8.17
2023-02-01T18:42:48.861Z,8.12
2023-02-01T18:45:41.711Z,8.12
2023-02-01T18:48:10.978Z,8.08
2023-02-01T18:50:41.208Z,7.67
2023-02-01T18:53:13.590Z,7.85
2023-02-01T18:55:40.437Z,8.19
2023-02-01T18:58:07.700Z,8.01
2023-02-01T19:00:35.767Z,8.17
2023-02-01T19:03:02.588Z,8.02
2023-02-01T19:05:31.325Z,7.43
2023-02-01T19:07:58.057Z,7.74
2023-02-01T19:10:26.083Z,7.87
2023-02-01T19:12:54.459Z,8.02
2023-02-01T19:15:22.302Z,8.09
2023-02-01T19:17:51.135Z,8.02
2023-02-01T19:20:20.139Z,7.47
2023-02-01T19:22:48.551Z,6.45
2023-02-01T19:25:18.855Z,6.00
2023-02-01T19:27:45.750Z,6.61
2023-02-01T19:30:13.353Z,7.31
2023-02-01T19:32:40.854Z,6.99
2023-02-01T19:35:10.040Z,7.08
2023-02-01T19:37:36.754Z,6.51
2023-02-01T19:40:03.637Z,5.25
2023-02-01T19:42:55.559Z,4.70
2023-02-01T19:45:22.947Z,4.64
2023-02-01T19:47:49.803Z,4.40
2023-02-01T19:50:19.672Z,4.40
2023-02-01T19:52:46.529Z,4.18
2023-02-01T19:55:14.086Z,4.73
2023-02-01T19:57:40.896Z,4.26
2023-02-01T20:00:08.156Z,4.24
2023-02-01T20:02:33.998Z,4.19
2023-02-01T20:05:00.693Z,4.28
2023-02-01T20:07:27.445Z,4.34
2023-02-01T20:09:54.202Z,4.14
2023-02-01T20:12:20.834Z,4.22
2023-02-01T20:14:47.437Z,4.50
2023-02-01T20:17:15.907Z,4.25
2023-02-01T20:19:42.680Z,4.66
2023-02-01T20:22:09.302Z,4.68
2023-02-01T20:24:35.945Z,4.59
2023-02-01T20:27:03.600Z,4.51
2023-02-01T20:29:30.343Z,4.53
2023-02-01T20:31:58.112Z,4.51
2023-02-01T20:34:24.815Z,4.58
2023-02-01T20:36:51.629Z,4.66
2023-02-01T20:39:18.423Z,4.45
2023-02-01T20:41:45.175Z,4.33
2023-02-01T20:44:13.054Z,4.71
2023-02-01T20:46:39.809Z,4.80
2023-02-01T20:49:06.560Z,5.06
2023-02-01T20:51:34.410Z,4.85
2023-02-01T20:54:01.141Z,4.69
2023-02-01T20:56:27.802Z,4.89
2023-02-01T20:58:54.464Z,4.78
2023-02-01T21:01:21.124Z,4.81
2023-02-01T21:03:47.795Z,4.67
2023-02-01T21:06:14.464Z,4.69
2023-02-01T21:08:41.334Z,5.24
2023-02-01T21:11:10.998Z,5.30
2023-02-01T21:13:40.888Z,5.30
2023-02-01T21:16:10.325Z,6.13
2023-02-01T21:18:37.328Z,6.62
2023-02-01T21:21:09.005Z,7.14
2023-02-01T21:23:39.248Z,7.53
2023-02-01T21:26:05.949Z,7.72
2023-02-01T21:28:32.735Z,7.89
2023-02-01T21:30:59.656Z,7.58
2023-02-01T21:33:26.388Z,7.68
2023-02-01T21:35:53.078Z,7.88
2023-02-01T21:38:19.735Z,8.02
2023-02-01T21:40:46.397Z,8.01
2023-02-01T21:43:13.068Z,8.22
2023-02-01T21:45:46.068Z,8.17
2023-02-01T21:48:17.724Z,8.31
2023-02-01T21:50:45.463Z,8.09
2023-02-01T21:53:12.129Z,8.11
2023-02-01T21:55:38.758Z,7.88
2023-02-01T21:58:05.391Z,7.82
2023-02-01T22:00:32.040Z,7.11
2023-02-01T22:02:58.710Z,7.14
2023-02-01T22:05:25.549Z,7.32
2023-02-01T22:07:52.360Z,7.57
2023-02-01T22:10:19.108Z,7.77
2023-02-01T22:12:45.814Z,7.92
2023-02-01T22:15:12.528Z,7.60
2023-02-01T22:17:39.270Z,7.38
2023-02-01T22:20:06.338Z,7.32
2023-02-01T22:22:32.980Z,7.11
2023-02-01T22:24:59.803Z,7.35
2023-02-01T22:27:30.498Z,7.06
2023-02-01T22:30:13.587Z,6.54
2023-02-01T22:32:40.500Z,6.78
2023-02-01T22:35:07.823Z,6.97
2023-02-01T22:37:34.845Z,7.37
2023-02-01T22:40:01.579Z,7.04
2023-02-01T22:42:28.793Z,7.09
2023-02-01T22:44:56.514Z,7.40
2023-02-01T22:47:23.342Z,7.28
2023-02-01T22:49:50.069Z,7.58
2023-02-01T22:52:17.863Z,7.38
2023-02-01T22:54:44.543Z,7.58
2023-02-01T22:57:11.174Z,7.45
2023-02-01T22:59:37.859Z,6.99
2023-02-01T23:02:04.521Z,7.15
2023-02-01T23:04:31.232Z,7.48
2023-02-01T23:06:57.931Z,7.73
2023-02-01T23:09:26.025Z,7.63
2023-02-01T23:11:54.986Z,7.28
2023-02-01T23:14:21.791Z,7.11
2023-02-01T23:16:49.726Z,6.97
2023-02-01T23:19:17.479Z,7.05
2023-02-01T23:21:44.395Z,7.34
2023-02-01T23:24:11.274Z,7.39
2023-02-01T23:26:38.611Z,7.55
2023-02-01T23:29:05.620Z,7.38
2023-02-01T23:31:34.538Z,7.32
2023-02-01T23:34:03.094Z,7.15
2023-02-01T23:36:30.839Z,7.18
2023-02-01T23:38:58.170Z,7.44
2023-02-01T23:41:25.473Z,7.54
2023-02-01T23:43:52.147Z,7.37
2023-02-01T23:46:19.756Z,7.40
2023-02-01T23:48:48.482Z,7.41
2023-02-01T23:51:15.657Z,7.36
2023-02-01T23:53:42.661Z,7.43
2023-02-01T23:56:17.174Z,7.55
2023-02-01T23:58:43.971Z,7.38
